UAL2480 KSFO-KEWR
Flight info
| Callsign | UAL2480 |
|---|---|
| Flight time | 4h 59m |
| Altitude | 37000 |
| Route | SNTNA2 SYRAH Q128 TABLL KU54Q DBL HCT OVR/N0478F390 DSM EVOTE NELLS KEEHO J584 SLT FQM3 |
| Aircraft | B77W/H-SDE1E2E3FGHIJ2J3J4J5M1RWXY/LB1D1 |
Departure
| Time | 2026-04-25 19:47 |
|---|---|
| Airport | San Francisco International Airport (KSFO) |
Arrival
| Time | 2026-04-26 00:47 |
|---|---|
| Airport | Newark Liberty International Airport (KEWR) |
| Time | Latitude | Longitude | Altitude | Speed | Heading |
|---|---|---|---|---|---|
| 2026-04-25 19:20 | 37.62132 | -122.38921 | 38 ft | 0 kts | 205° |
| 2026-04-25 19:34 | 37.62143 | -122.38915 | 38 ft | 2 kts | 207° |
| 2026-04-25 19:34 | 37.62154 | -122.38908 | 38 ft | 2 kts | 207° |
| 2026-04-25 19:34 | 37.62166 | -122.38900 | 38 ft | 2 kts | 207° |
| 2026-04-25 19:34 | 37.62178 | -122.38892 | 38 ft | 2 kts | 207° |
| 2026-04-25 19:35 | 37.62191 | -122.38884 | 38 ft | 2 kts | 207° |
| 2026-04-25 19:35 | 37.62203 | -122.38876 | 38 ft | 2 kts | 207° |
| 2026-04-25 19:35 | 37.62215 | -122.38869 | 38 ft | 2 kts | 207° |
| 2026-04-25 19:35 | 37.62225 | -122.38863 | 38 ft | 0 kts | 207° |
| 2026-04-25 19:36 | 37.62240 | -122.38860 | 37 ft | 3 kts | 149° |
| 2026-04-25 19:36 | 37.62248 | -122.38870 | 37 ft | 1 kts | 116° |
| 2026-04-25 19:36 | 37.62250 | -122.38873 | 37 ft | 0 kts | 117° |
| 2026-04-25 19:38 | 37.62247 | -122.38866 | 37 ft | 2 kts | 117° |
| 2026-04-25 19:38 | 37.62232 | -122.38829 | 37 ft | 8 kts | 117° |
| 2026-04-25 19:39 | 37.62203 | -122.38760 | 38 ft | 11 kts | 120° |
| 2026-04-25 19:39 | 37.62164 | -122.38674 | 38 ft | 13 kts | 119° |
| 2026-04-25 19:39 | 37.62121 | -122.38570 | 38 ft | 16 kts | 118° |
| 2026-04-25 19:39 | 37.62070 | -122.38449 | 38 ft | 17 kts | 118° |
| 2026-04-25 19:40 | 37.62020 | -122.38332 | 38 ft | 16 kts | 118° |
| 2026-04-25 19:40 | 37.61973 | -122.38219 | 38 ft | 15 kts | 118° |
| 2026-04-25 19:40 | 37.61928 | -122.38112 | 38 ft | 14 kts | 118° |
| 2026-04-25 19:40 | 37.61886 | -122.38011 | 38 ft | 14 kts | 117° |
| 2026-04-25 19:41 | 37.61845 | -122.37909 | 36 ft | 14 kts | 117° |
| 2026-04-25 19:41 | 37.61809 | -122.37799 | 34 ft | 15 kts | 111° |
| 2026-04-25 19:41 | 37.61773 | -122.37683 | 32 ft | 16 kts | 109° |
| 2026-04-25 19:41 | 37.61762 | -122.37643 | 31 ft | 17 kts | 109° |
| 2026-04-25 19:42 | 37.61682 | -122.37427 | 24 ft | 19 kts | 116° |
| 2026-04-25 19:42 | 37.61628 | -122.37294 | 21 ft | 19 kts | 118° |
| 2026-04-25 19:42 | 37.61571 | -122.37160 | 19 ft | 19 kts | 118° |
| 2026-04-25 19:42 | 37.61514 | -122.37025 | 18 ft | 18 kts | 118° |
| 2026-04-25 19:43 | 37.61451 | -122.36902 | 18 ft | 17 kts | 130° |
| 2026-04-25 19:43 | 37.61381 | -122.36800 | 18 ft | 16 kts | 118° |
| 2026-04-25 19:43 | 37.61329 | -122.36692 | 18 ft | 15 kts | 120° |
| 2026-04-25 19:43 | 37.61285 | -122.36588 | 18 ft | 14 kts | 117° |
| 2026-04-25 19:44 | 37.61242 | -122.36483 | 17 ft | 15 kts | 118° |
| 2026-04-25 19:44 | 37.61197 | -122.36377 | 16 ft | 15 kts | 118° |
| 2026-04-25 19:44 | 37.61154 | -122.36272 | 15 ft | 14 kts | 118° |
| 2026-04-25 19:44 | 37.61111 | -122.36171 | 15 ft | 14 kts | 118° |
| 2026-04-25 19:45 | 37.61070 | -122.36075 | 15 ft | 13 kts | 118° |
| 2026-04-25 19:45 | 37.61052 | -122.35975 | 15 ft | 12 kts | 81° |
| 2026-04-25 19:45 | 37.61091 | -122.35907 | 15 ft | 10 kts | 33° |
| 2026-04-25 19:45 | 37.61147 | -122.35872 | 15 ft | 8 kts | 12° |
| 2026-04-25 19:46 | 37.61189 | -122.35886 | 15 ft | 6 kts | 324° |
| 2026-04-25 19:46 | 37.61209 | -122.35920 | 15 ft | 2 kts | 297° |
| 2026-04-25 19:46 | 37.61218 | -122.35941 | 15 ft | 3 kts | 297° |
| 2026-04-25 19:46 | 37.61260 | -122.36046 | 15 ft | 39 kts | 297° |
| 2026-04-25 19:47 | 37.61467 | -122.36543 | 19 ft | 101 kts | 298° |
| 2026-04-25 19:47 | 37.61842 | -122.37435 | 26 ft | 155 kts | 297° |
| 2026-04-25 19:47 | 37.62353 | -122.38623 | 226 ft | 184 kts | 296° |
| 2026-04-25 19:47 | 37.62900 | -122.39990 | 783 ft | 197 kts | 295° |
| 2026-04-25 19:48 | 37.63456 | -122.41333 | 1737 ft | 186 kts | 297° |
| 2026-04-25 19:48 | 37.64039 | -122.42677 | 2103 ft | 200 kts | 297° |
| 2026-04-25 19:48 | 37.64694 | -122.44184 | 2492 ft | 217 kts | 297° |
| 2026-04-25 19:48 | 37.65388 | -122.45779 | 2911 ft | 232 kts | 297° |
| 2026-04-25 19:49 | 37.66119 | -122.47459 | 3348 ft | 246 kts | 298° |
| 2026-04-25 19:49 | 37.66378 | -122.48056 | 3501 ft | 251 kts | 298° |
| 2026-04-25 19:49 | 37.67787 | -122.50891 | 4557 ft | 259 kts | 314° |
| 2026-04-25 19:49 | 37.69107 | -122.52028 | 5166 ft | 265 kts | 337° |
| 2026-04-25 19:50 | 37.72379 | -122.52560 | 6569 ft | 267 kts | 358° |
| 2026-04-25 19:50 | 37.74068 | -122.52612 | 7207 ft | 271 kts | 358° |
| 2026-04-25 19:50 | 37.75762 | -122.52669 | 7803 ft | 275 kts | 359° |
| 2026-04-25 19:51 | 37.77544 | -122.52720 | 8436 ft | 278 kts | 2° |
| 2026-04-25 19:51 | 37.79252 | -122.52276 | 8969 ft | 282 kts | 24° |
| 2026-04-25 19:51 | 37.80693 | -122.51046 | 9536 ft | 283 kts | 47° |
| 2026-04-25 19:51 | 37.81693 | -122.49223 | 10146 ft | 284 kts | 63° |
| 2026-04-25 19:52 | 37.82480 | -122.47159 | 10504 ft | 297 kts | 66° |
| 2026-04-25 19:52 | 37.83250 | -122.44965 | 10805 ft | 312 kts | 67° |
| 2026-04-25 19:52 | 37.83868 | -122.42570 | 11114 ft | 326 kts | 78° |
| 2026-04-25 19:52 | 37.84223 | -122.39932 | 11415 ft | 342 kts | 82° |
| 2026-04-25 19:53 | 37.84550 | -122.37160 | 11718 ft | 357 kts | 82° |
| 2026-04-25 19:53 | 37.84889 | -122.34286 | 12113 ft | 370 kts | 82° |
| 2026-04-25 19:53 | 37.85243 | -122.31303 | 12595 ft | 381 kts | 81° |
| 2026-04-25 19:53 | 37.85600 | -122.28311 | 13271 ft | 386 kts | 81° |
| 2026-04-25 19:54 | 37.85960 | -122.25299 | 14026 ft | 390 kts | 81° |
| 2026-04-25 19:54 | 37.86329 | -122.22196 | 14887 ft | 392 kts | 81° |
| 2026-04-25 19:54 | 37.86695 | -122.19113 | 15798 ft | 394 kts | 81° |
| 2026-04-25 19:54 | 37.86941 | -122.17041 | 16410 ft | 395 kts | 81° |
| 2026-04-25 19:55 | 37.87436 | -122.12865 | 17534 ft | 399 kts | 81° |
| 2026-04-25 19:55 | 37.87819 | -122.09624 | 18354 ft | 402 kts | 81° |
| 2026-04-25 19:55 | 37.88200 | -122.06386 | 19097 ft | 406 kts | 81° |
| 2026-04-25 19:55 | 37.88586 | -122.03110 | 19738 ft | 412 kts | 81° |
| 2026-04-25 19:56 | 37.88982 | -121.99727 | 20300 ft | 421 kts | 82° |
| 2026-04-25 19:56 | 37.89379 | -121.96334 | 20861 ft | 428 kts | 81° |
| 2026-04-25 19:56 | 37.89778 | -121.92918 | 21462 ft | 434 kts | 82° |
| 2026-04-25 19:56 | 37.90188 | -121.89396 | 21942 ft | 442 kts | 82° |
| 2026-04-25 19:57 | 37.90599 | -121.85857 | 22406 ft | 451 kts | 82° |
| 2026-04-25 19:57 | 37.91019 | -121.82221 | 22870 ft | 459 kts | 82° |
| 2026-04-25 19:57 | 37.91449 | -121.78497 | 23398 ft | 465 kts | 82° |
| 2026-04-25 19:57 | 37.91874 | -121.74805 | 23987 ft | 469 kts | 82° |
| 2026-04-25 19:58 | 37.92307 | -121.71030 | 24601 ft | 473 kts | 82° |
| 2026-04-25 19:58 | 37.92743 | -121.67222 | 25202 ft | 477 kts | 83° |
| 2026-04-25 19:58 | 37.93174 | -121.63451 | 25773 ft | 481 kts | 83° |
| 2026-04-25 19:58 | 37.93611 | -121.59605 | 26324 ft | 486 kts | 83° |
| 2026-04-25 19:59 | 37.94050 | -121.55734 | 26880 ft | 490 kts | 83° |
| 2026-04-25 19:59 | 37.94487 | -121.51866 | 27440 ft | 494 kts | 83° |
| 2026-04-25 19:59 | 37.94923 | -121.48001 | 27980 ft | 499 kts | 83° |
| 2026-04-25 19:59 | 37.95369 | -121.44029 | 28554 ft | 503 kts | 84° |
| 2026-04-25 20:00 | 37.95821 | -121.39999 | 29161 ft | 506 kts | 84° |
| 2026-04-25 20:00 | 37.95970 | -121.38661 | 29375 ft | 507 kts | 84° |
| 2026-04-25 20:00 | 37.96711 | -121.32018 | 30600 ft | 506 kts | 85° |
| 2026-04-25 20:00 | 37.97158 | -121.28002 | 31306 ft | 504 kts | 85° |
| 2026-04-25 20:01 | 37.98051 | -121.19920 | 32354 ft | 506 kts | 85° |
| 2026-04-25 20:01 | 37.98488 | -121.15942 | 32795 ft | 508 kts | 85° |
| 2026-04-25 20:01 | 37.98933 | -121.11876 | 33291 ft | 509 kts | 85° |
| 2026-04-25 20:02 | 37.99406 | -121.07808 | 33748 ft | 511 kts | 83° |
| 2026-04-25 20:02 | 38.00022 | -121.03801 | 34208 ft | 512 kts | 82° |
| 2026-04-25 20:02 | 38.00668 | -120.99773 | 34613 ft | 512 kts | 82° |
| 2026-04-25 20:02 | 38.01305 | -120.95776 | 34996 ft | 513 kts | 82° |
| 2026-04-25 20:03 | 38.01940 | -120.91753 | 35384 ft | 513 kts | 82° |
| 2026-04-25 20:03 | 38.02566 | -120.87761 | 35777 ft | 513 kts | 82° |
| 2026-04-25 20:03 | 38.03202 | -120.83675 | 36236 ft | 511 kts | 82° |
| 2026-04-25 20:03 | 38.03823 | -120.79674 | 36748 ft | 510 kts | 82° |
| 2026-04-25 20:04 | 38.04444 | -120.75645 | 36908 ft | 514 kts | 82° |
| 2026-04-25 20:04 | 38.05067 | -120.71581 | 36921 ft | 520 kts | 82° |
| 2026-04-25 20:04 | 38.06327 | -120.63329 | 36915 ft | 518 kts | 82° |
| 2026-04-25 20:05 | 38.07568 | -120.55147 | 36916 ft | 520 kts | 82° |
| 2026-04-25 20:05 | 38.08812 | -120.46903 | 36917 ft | 519 kts | 82° |
| 2026-04-25 20:06 | 38.10054 | -120.38621 | 36928 ft | 521 kts | 82° |
| 2026-04-25 20:06 | 38.11283 | -120.30382 | 36920 ft | 522 kts | 82° |
| 2026-04-25 20:07 | 38.12511 | -120.22108 | 36918 ft | 521 kts | 82° |
| 2026-04-25 20:07 | 38.13721 | -120.13912 | 36922 ft | 522 kts | 82° |
| 2026-04-25 20:08 | 38.14928 | -120.05694 | 36918 ft | 522 kts | 82° |
| 2026-04-25 20:08 | 38.16134 | -119.97440 | 36910 ft | 523 kts | 82° |
| 2026-04-25 20:09 | 38.17327 | -119.89234 | 36898 ft | 523 kts | 82° |
| 2026-04-25 20:09 | 38.18512 | -119.81039 | 36897 ft | 525 kts | 82° |
| 2026-04-25 20:10 | 38.19700 | -119.72782 | 36904 ft | 525 kts | 82° |
| 2026-04-25 20:10 | 38.20879 | -119.64549 | 36903 ft | 525 kts | 82° |
| 2026-04-25 20:11 | 38.22065 | -119.56217 | 36897 ft | 526 kts | 82° |
| 2026-04-25 20:11 | 38.23232 | -119.47983 | 36882 ft | 527 kts | 82° |
| 2026-04-25 20:12 | 38.24393 | -119.39742 | 36898 ft | 526 kts | 82° |
| 2026-04-25 20:12 | 38.25170 | -119.34202 | 36899 ft | 527 kts | 83° |
| 2026-04-25 20:13 | 38.26712 | -119.23151 | 36896 ft | 527 kts | 82° |
| 2026-04-25 20:13 | 38.27862 | -119.14853 | 36901 ft | 528 kts | 82° |
| 2026-04-25 20:14 | 38.29012 | -119.06518 | 36906 ft | 528 kts | 83° |
| 2026-04-25 20:14 | 38.30157 | -118.98171 | 36908 ft | 528 kts | 83° |
| 2026-04-25 20:15 | 38.31298 | -118.89806 | 36905 ft | 530 kts | 82° |
| 2026-04-25 20:15 | 38.32439 | -118.81396 | 36906 ft | 529 kts | 83° |
| 2026-04-25 20:16 | 38.33569 | -118.73019 | 36900 ft | 530 kts | 83° |
| 2026-04-25 20:16 | 38.34691 | -118.64658 | 36901 ft | 530 kts | 83° |
| 2026-04-25 20:17 | 38.35811 | -118.56263 | 36897 ft | 531 kts | 83° |
| 2026-04-25 20:17 | 38.36919 | -118.47901 | 36893 ft | 531 kts | 82° |
| 2026-04-25 20:18 | 38.38030 | -118.39480 | 36890 ft | 532 kts | 83° |
| 2026-04-25 20:18 | 38.39136 | -118.31049 | 36883 ft | 532 kts | 83° |
| 2026-04-25 20:19 | 38.40231 | -118.22652 | 36877 ft | 533 kts | 83° |
| 2026-04-25 20:19 | 38.41324 | -118.14220 | 36879 ft | 530 kts | 83° |
| 2026-04-25 20:20 | 38.42416 | -118.05736 | 36872 ft | 534 kts | 83° |
| 2026-04-25 20:20 | 38.43500 | -117.97279 | 36875 ft | 533 kts | 83° |
| 2026-04-25 20:21 | 38.44579 | -117.88811 | 36879 ft | 533 kts | 83° |
| 2026-04-25 20:21 | 38.45657 | -117.80289 | 36882 ft | 533 kts | 83° |
| 2026-04-25 20:22 | 38.46366 | -117.74664 | 36881 ft | 533 kts | 83° |
| 2026-04-25 20:22 | 38.47787 | -117.63310 | 36880 ft | 534 kts | 83° |
| 2026-04-25 20:23 | 38.48844 | -117.54803 | 36888 ft | 535 kts | 83° |
| 2026-04-25 20:23 | 38.49896 | -117.46298 | 36888 ft | 533 kts | 83° |
| 2026-04-25 20:24 | 38.50938 | -117.37808 | 36893 ft | 536 kts | 83° |
| 2026-04-25 20:24 | 38.51947 | -117.29265 | 36881 ft | 534 kts | 87° |
| 2026-04-25 20:25 | 38.52462 | -117.20705 | 36888 ft | 535 kts | 89° |
| 2026-04-25 20:25 | 38.52909 | -117.12167 | 36888 ft | 533 kts | 89° |
| 2026-04-25 20:26 | 38.53349 | -117.03587 | 36888 ft | 534 kts | 89° |
| 2026-04-25 20:26 | 38.53782 | -116.95029 | 36902 ft | 534 kts | 89° |
| 2026-04-25 20:27 | 38.54211 | -116.86394 | 36904 ft | 536 kts | 89° |
| 2026-04-25 20:27 | 38.54631 | -116.77808 | 36906 ft | 536 kts | 89° |
| 2026-04-25 20:28 | 38.55044 | -116.69230 | 36908 ft | 537 kts | 89° |
| 2026-04-25 20:28 | 38.55454 | -116.60587 | 36911 ft | 536 kts | 89° |
| 2026-04-25 20:29 | 38.55858 | -116.51944 | 36914 ft | 537 kts | 89° |
| 2026-04-25 20:29 | 38.56257 | -116.43260 | 36914 ft | 537 kts | 89° |
| 2026-04-25 20:30 | 38.56646 | -116.34648 | 36910 ft | 538 kts | 90° |
| 2026-04-25 20:30 | 38.57033 | -116.25943 | 36905 ft | 539 kts | 89° |
| 2026-04-25 20:31 | 38.57411 | -116.17293 | 36906 ft | 538 kts | 90° |
| 2026-04-25 20:31 | 38.57783 | -116.08652 | 36910 ft | 539 kts | 89° |
| 2026-04-25 20:32 | 38.58151 | -115.99928 | 36911 ft | 539 kts | 89° |
| 2026-04-25 20:32 | 38.58509 | -115.91308 | 36912 ft | 538 kts | 90° |
| 2026-04-25 20:33 | 38.58864 | -115.82586 | 36911 ft | 541 kts | 89° |
| 2026-04-25 20:33 | 38.59153 | -115.75373 | 36919 ft | 540 kts | 89° |
| 2026-04-25 20:34 | 38.59551 | -115.65277 | 36919 ft | 539 kts | 90° |
| 2026-04-25 20:34 | 38.59888 | -115.56515 | 36922 ft | 541 kts | 90° |
| 2026-04-25 20:35 | 38.60214 | -115.47880 | 36916 ft | 541 kts | 90° |
| 2026-04-25 20:35 | 38.60538 | -115.39145 | 36921 ft | 540 kts | 89° |
| 2026-04-25 20:36 | 38.60854 | -115.30434 | 36913 ft | 541 kts | 90° |
| 2026-04-25 20:36 | 38.61164 | -115.21716 | 36916 ft | 541 kts | 90° |
| 2026-04-25 20:37 | 38.61464 | -115.13084 | 36921 ft | 541 kts | 90° |
| 2026-04-25 20:37 | 38.61762 | -115.04358 | 36918 ft | 541 kts | 90° |
| 2026-04-25 20:38 | 38.62051 | -114.95659 | 36918 ft | 541 kts | 90° |
| 2026-04-25 20:38 | 38.62338 | -114.86843 | 36919 ft | 542 kts | 90° |
| 2026-04-25 20:39 | 38.62615 | -114.78152 | 36923 ft | 540 kts | 90° |
| 2026-04-25 20:39 | 38.62842 | -114.70850 | 36923 ft | 542 kts | 90° |
| 2026-04-25 20:40 | 38.63152 | -114.60645 | 36921 ft | 542 kts | 90° |
| 2026-04-25 20:40 | 38.63411 | -114.51902 | 36917 ft | 542 kts | 90° |
| 2026-04-25 20:41 | 38.63664 | -114.43134 | 36920 ft | 543 kts | 90° |
| 2026-04-25 20:41 | 38.63910 | -114.34373 | 36925 ft | 543 kts | 91° |
| 2026-04-25 20:42 | 38.64150 | -114.25591 | 36917 ft | 543 kts | 91° |
| 2026-04-25 20:42 | 38.64384 | -114.16797 | 36920 ft | 544 kts | 91° |
| 2026-04-25 20:43 | 38.64611 | -114.07999 | 36914 ft | 542 kts | 91° |
| 2026-04-25 20:43 | 38.64831 | -113.99229 | 36911 ft | 543 kts | 91° |
| 2026-04-25 20:44 | 38.65045 | -113.90437 | 36906 ft | 544 kts | 91° |
| 2026-04-25 20:44 | 38.65253 | -113.81644 | 36908 ft | 544 kts | 91° |
| 2026-04-25 20:45 | 38.65454 | -113.72839 | 36913 ft | 545 kts | 90° |
| 2026-04-25 20:45 | 38.65649 | -113.63989 | 36905 ft | 544 kts | 91° |
| 2026-04-25 20:46 | 38.65836 | -113.55231 | 36909 ft | 544 kts | 90° |
| 2026-04-25 20:46 | 38.66018 | -113.46398 | 36905 ft | 545 kts | 91° |
| 2026-04-25 20:47 | 38.66193 | -113.37570 | 36913 ft | 545 kts | 91° |
| 2026-04-25 20:47 | 38.66362 | -113.28709 | 36897 ft | 544 kts | 91° |
| 2026-04-25 20:48 | 38.66524 | -113.19893 | 36906 ft | 544 kts | 91° |
| 2026-04-25 20:48 | 38.67013 | -113.11023 | 36895 ft | 548 kts | 82° |
| 2026-04-25 20:49 | 38.68171 | -113.02228 | 36894 ft | 550 kts | 82° |
| 2026-04-25 20:49 | 38.69296 | -112.93416 | 36901 ft | 549 kts | 82° |
| 2026-04-25 20:50 | 38.70376 | -112.84624 | 36901 ft | 548 kts | 82° |
| 2026-04-25 20:50 | 38.71431 | -112.75809 | 36899 ft | 550 kts | 83° |
| 2026-04-25 20:51 | 38.72463 | -112.67019 | 36915 ft | 549 kts | 83° |
| 2026-04-25 20:51 | 38.73487 | -112.58168 | 36925 ft | 550 kts | 83° |
| 2026-04-25 20:52 | 38.74334 | -112.50777 | 36931 ft | 550 kts | 83° |
| 2026-04-25 20:52 | 38.75502 | -112.40472 | 36940 ft | 550 kts | 83° |
| 2026-04-25 20:53 | 38.76496 | -112.31631 | 36937 ft | 551 kts | 83° |
| 2026-04-25 20:53 | 38.77485 | -112.22754 | 36942 ft | 552 kts | 83° |
| 2026-04-25 20:54 | 38.78461 | -112.13930 | 36942 ft | 551 kts | 83° |
| 2026-04-25 20:54 | 38.79439 | -112.05026 | 36930 ft | 551 kts | 84° |
| 2026-04-25 20:55 | 38.80402 | -111.96186 | 36941 ft | 554 kts | 83° |
| 2026-04-25 20:55 | 38.81368 | -111.87258 | 36941 ft | 552 kts | 83° |
| 2026-04-25 20:56 | 38.82319 | -111.78399 | 36946 ft | 553 kts | 83° |
| 2026-04-25 20:56 | 38.83260 | -111.69569 | 36951 ft | 552 kts | 83° |
| 2026-04-25 20:57 | 38.84201 | -111.60682 | 36947 ft | 551 kts | 83° |
| 2026-04-25 20:57 | 38.85133 | -111.51807 | 36953 ft | 552 kts | 83° |
| 2026-04-25 20:58 | 38.86053 | -111.42979 | 36952 ft | 551 kts | 83° |
| 2026-04-25 20:58 | 38.86972 | -111.34089 | 36946 ft | 551 kts | 84° |
| 2026-04-25 20:59 | 38.87878 | -111.25273 | 36923 ft | 549 kts | 84° |
| 2026-04-25 20:59 | 38.88774 | -111.16477 | 36915 ft | 552 kts | 84° |
| 2026-04-25 21:00 | 38.89373 | -111.10555 | 36923 ft | 550 kts | 84° |
| 2026-04-25 21:01 | 38.91002 | -110.94312 | 36925 ft | 551 kts | 84° |
| 2026-04-25 21:01 | 38.91875 | -110.85511 | 36943 ft | 550 kts | 83° |
| 2026-04-25 21:02 | 38.92748 | -110.76639 | 36894 ft | 550 kts | 84° |
| 2026-04-25 21:02 | 38.93608 | -110.67828 | 36930 ft | 552 kts | 84° |
| 2026-04-25 21:03 | 38.94465 | -110.58979 | 36916 ft | 550 kts | 84° |
| 2026-04-25 21:03 | 38.95318 | -110.50100 | 36921 ft | 553 kts | 84° |
| 2026-04-25 21:04 | 38.96168 | -110.41172 | 36941 ft | 551 kts | 84° |
| 2026-04-25 21:04 | 38.97014 | -110.32219 | 36888 ft | 553 kts | 85° |
| 2026-04-25 21:05 | 38.97846 | -110.23341 | 36880 ft | 550 kts | 84° |
| 2026-04-25 21:05 | 38.98674 | -110.14432 | 36885 ft | 552 kts | 84° |
| 2026-04-25 21:06 | 38.99492 | -110.05547 | 36882 ft | 552 kts | 84° |
| 2026-04-25 21:06 | 39.00358 | -109.96686 | 36871 ft | 552 kts | 80° |
| 2026-04-25 21:07 | 39.01751 | -109.87877 | 36902 ft | 553 kts | 79° |
| 2026-04-25 21:07 | 39.03164 | -109.79049 | 36917 ft | 552 kts | 79° |
| 2026-04-25 21:08 | 39.04546 | -109.70242 | 36931 ft | 554 kts | 79° |
| 2026-04-25 21:08 | 39.05883 | -109.61597 | 36929 ft | 552 kts | 79° |
| 2026-04-25 21:09 | 39.07890 | -109.48457 | 36927 ft | 554 kts | 79° |
| 2026-04-25 21:09 | 39.09230 | -109.39590 | 36923 ft | 553 kts | 79° |
| 2026-04-25 21:10 | 39.10568 | -109.30674 | 36890 ft | 554 kts | 80° |
| 2026-04-25 21:10 | 39.11884 | -109.21847 | 36890 ft | 553 kts | 80° |
| 2026-04-25 21:11 | 39.13203 | -109.12950 | 36901 ft | 554 kts | 80° |
| 2026-04-25 21:11 | 39.14511 | -109.04074 | 36910 ft | 554 kts | 79° |
| 2026-04-25 21:12 | 39.15822 | -108.95124 | 36910 ft | 554 kts | 79° |
| 2026-04-25 21:12 | 39.16911 | -108.87649 | 36911 ft | 555 kts | 79° |
| 2026-04-25 21:13 | 39.18446 | -108.77063 | 36906 ft | 554 kts | 80° |
| 2026-04-25 21:13 | 39.19741 | -108.68068 | 36910 ft | 555 kts | 80° |
| 2026-04-25 21:14 | 39.21018 | -108.59146 | 36907 ft | 556 kts | 80° |
| 2026-04-25 21:14 | 39.22295 | -108.50174 | 36915 ft | 556 kts | 79° |
| 2026-04-25 21:15 | 39.23573 | -108.41152 | 36943 ft | 557 kts | 79° |
| 2026-04-25 21:15 | 39.24829 | -108.32222 | 36946 ft | 555 kts | 80° |
| 2026-04-25 21:16 | 39.26094 | -108.23183 | 36956 ft | 557 kts | 80° |
| 2026-04-25 21:16 | 39.27350 | -108.14150 | 36991 ft | 557 kts | 80° |
| 2026-04-25 21:17 | 39.28598 | -108.05123 | 37005 ft | 557 kts | 80° |
| 2026-04-25 21:17 | 39.29840 | -107.96086 | 37039 ft | 556 kts | 80° |
| 2026-04-25 21:18 | 39.31076 | -107.87042 | 37031 ft | 557 kts | 80° |
| 2026-04-25 21:18 | 39.32301 | -107.78023 | 37051 ft | 555 kts | 80° |
| 2026-04-25 21:19 | 39.33520 | -107.68988 | 37036 ft | 557 kts | 80° |
| 2026-04-25 21:19 | 39.34743 | -107.59869 | 37050 ft | 554 kts | 80° |
| 2026-04-25 21:20 | 39.35756 | -107.52276 | 37066 ft | 557 kts | 80° |
| 2026-04-25 21:20 | 39.37153 | -107.41740 | 37103 ft | 554 kts | 80° |
| 2026-04-25 21:21 | 39.38359 | -107.32578 | 37071 ft | 555 kts | 81° |
| 2026-04-25 21:21 | 39.39540 | -107.23553 | 37094 ft | 555 kts | 81° |
| 2026-04-25 21:22 | 39.40721 | -107.14476 | 37090 ft | 555 kts | 81° |
| 2026-04-25 21:22 | 39.41892 | -107.05415 | 37055 ft | 555 kts | 81° |
| 2026-04-25 21:23 | 39.43042 | -106.96454 | 37038 ft | 553 kts | 80° |
| 2026-04-25 21:23 | 39.44215 | -106.87367 | 37020 ft | 555 kts | 78° |
| 2026-04-25 21:24 | 39.45947 | -106.78490 | 37023 ft | 553 kts | 74° |
| 2026-04-25 21:24 | 39.47731 | -106.69750 | 37077 ft | 554 kts | 74° |
| 2026-04-25 21:25 | 39.49511 | -106.60872 | 37071 ft | 553 kts | 75° |
| 2026-04-25 21:25 | 39.51259 | -106.52031 | 37065 ft | 554 kts | 75° |
| 2026-04-25 21:26 | 39.53008 | -106.43101 | 37064 ft | 554 kts | 75° |
| 2026-04-25 21:26 | 39.54740 | -106.34189 | 37065 ft | 553 kts | 76° |
| 2026-04-25 21:27 | 39.56023 | -106.27552 | 37050 ft | 553 kts | 76° |
| 2026-04-25 21:27 | 39.57748 | -106.18586 | 37039 ft | 555 kts | 75° |
| 2026-04-25 21:28 | 39.59473 | -106.09566 | 37036 ft | 554 kts | 75° |
| 2026-04-25 21:28 | 39.61176 | -106.00621 | 37040 ft | 554 kts | 75° |
| 2026-04-25 21:29 | 39.62886 | -105.91592 | 37038 ft | 555 kts | 75° |
| 2026-04-25 21:29 | 39.64593 | -105.82540 | 37030 ft | 554 kts | 75° |
| 2026-04-25 21:30 | 39.66286 | -105.73515 | 37027 ft | 557 kts | 75° |
| 2026-04-25 21:30 | 39.67695 | -105.65977 | 37026 ft | 557 kts | 75° |
| 2026-04-25 21:31 | 39.69657 | -105.55426 | 37024 ft | 556 kts | 75° |
| 2026-04-25 21:31 | 39.71345 | -105.46303 | 37022 ft | 559 kts | 75° |
| 2026-04-25 21:32 | 39.73100 | -105.36771 | 37007 ft | 557 kts | 75° |
| 2026-04-25 21:32 | 39.74767 | -105.27674 | 36962 ft | 559 kts | 76° |
| 2026-04-25 21:33 | 39.76506 | -105.18135 | 36925 ft | 559 kts | 76° |
| 2026-04-25 21:33 | 39.78235 | -105.08607 | 36882 ft | 561 kts | 76° |
| 2026-04-25 21:34 | 39.79956 | -104.99076 | 36891 ft | 562 kts | 76° |
| 2026-04-25 21:34 | 39.81683 | -104.89458 | 36905 ft | 561 kts | 76° |
| 2026-04-25 21:35 | 39.83328 | -104.80257 | 36906 ft | 558 kts | 75° |
| 2026-04-25 21:35 | 39.84987 | -104.70927 | 36904 ft | 561 kts | 76° |
| 2026-04-25 21:36 | 39.86635 | -104.61610 | 36925 ft | 557 kts | 75° |
| 2026-04-25 21:36 | 39.88276 | -104.52294 | 36916 ft | 560 kts | 75° |
| 2026-04-25 21:37 | 39.89632 | -104.44557 | 36933 ft | 559 kts | 75° |
| 2026-04-25 21:37 | 39.91497 | -104.33858 | 36931 ft | 559 kts | 76° |
| 2026-04-25 21:38 | 39.93083 | -104.24715 | 36919 ft | 558 kts | 76° |
| 2026-04-25 21:38 | 39.94658 | -104.15594 | 36898 ft | 557 kts | 76° |
| 2026-04-25 21:39 | 39.96233 | -104.06419 | 36903 ft | 557 kts | 76° |
| 2026-04-25 21:39 | 39.97788 | -103.97315 | 36904 ft | 558 kts | 76° |
| 2026-04-25 21:40 | 39.99344 | -103.88165 | 36922 ft | 557 kts | 76° |
| 2026-04-25 21:40 | 40.00900 | -103.78965 | 36913 ft | 556 kts | 76° |
| 2026-04-25 21:41 | 40.02434 | -103.69846 | 36916 ft | 558 kts | 76° |
| 2026-04-25 21:41 | 40.03966 | -103.60696 | 36914 ft | 554 kts | 76° |
| 2026-04-25 21:42 | 40.05503 | -103.51463 | 36922 ft | 555 kts | 75° |
| 2026-04-25 21:42 | 40.07017 | -103.42325 | 36923 ft | 554 kts | 76° |
| 2026-04-25 21:43 | 40.08537 | -103.33109 | 36926 ft | 555 kts | 76° |
| 2026-04-25 21:43 | 40.10038 | -103.23953 | 36920 ft | 555 kts | 76° |
| 2026-04-25 21:44 | 40.11529 | -103.14809 | 36927 ft | 555 kts | 77° |
| 2026-04-25 21:45 | 40.13742 | -103.01149 | 36927 ft | 554 kts | 76° |
| 2026-04-25 21:45 | 40.15204 | -102.92067 | 36928 ft | 555 kts | 77° |
| 2026-04-25 21:46 | 40.16655 | -102.82997 | 36929 ft | 551 kts | 76° |
| 2026-04-25 21:46 | 40.18099 | -102.73934 | 36931 ft | 554 kts | 76° |
| 2026-04-25 21:47 | 40.19539 | -102.64844 | 36939 ft | 553 kts | 76° |
| 2026-04-25 21:47 | 40.20965 | -102.55793 | 36943 ft | 553 kts | 76° |
| 2026-04-25 21:48 | 40.22373 | -102.46811 | 36952 ft | 550 kts | 76° |
| 2026-04-25 21:48 | 40.23783 | -102.37762 | 36944 ft | 551 kts | 77° |
| 2026-04-25 21:49 | 40.25176 | -102.28780 | 36938 ft | 549 kts | 77° |
| 2026-04-25 21:49 | 40.26558 | -102.19816 | 36936 ft | 549 kts | 77° |
| 2026-04-25 21:50 | 40.27939 | -102.10813 | 36941 ft | 548 kts | 77° |
| 2026-04-25 21:50 | 40.29295 | -102.01924 | 36944 ft | 549 kts | 77° |
| 2026-04-25 21:51 | 40.30656 | -101.92949 | 36949 ft | 547 kts | 77° |
| 2026-04-25 21:51 | 40.32007 | -101.83993 | 36936 ft | 545 kts | 77° |
| 2026-04-25 21:52 | 40.33335 | -101.75145 | 36946 ft | 545 kts | 77° |
| 2026-04-25 21:52 | 40.34661 | -101.66261 | 36960 ft | 546 kts | 77° |
| 2026-04-25 21:53 | 40.35985 | -101.57339 | 36961 ft | 544 kts | 77° |
| 2026-04-25 21:53 | 40.37291 | -101.48492 | 36956 ft | 544 kts | 77° |
| 2026-04-25 21:54 | 40.38595 | -101.39604 | 36956 ft | 543 kts | 77° |
| 2026-04-25 21:54 | 40.39887 | -101.30748 | 36943 ft | 543 kts | 78° |
| 2026-04-25 21:55 | 40.41177 | -101.21858 | 36945 ft | 543 kts | 78° |
| 2026-04-25 21:55 | 40.42453 | -101.13017 | 36948 ft | 542 kts | 78° |
| 2026-04-25 21:56 | 40.43720 | -101.04188 | 36953 ft | 542 kts | 78° |
| 2026-04-25 21:56 | 40.44985 | -100.95317 | 36960 ft | 541 kts | 78° |
| 2026-04-25 21:57 | 40.46307 | -100.86512 | 36963 ft | 541 kts | 77° |
| 2026-04-25 21:57 | 40.47737 | -100.77696 | 36961 ft | 540 kts | 76° |
| 2026-04-25 21:58 | 40.49152 | -100.68906 | 36964 ft | 541 kts | 77° |
| 2026-04-25 21:58 | 40.50552 | -100.60134 | 36959 ft | 540 kts | 77° |
| 2026-04-25 21:59 | 40.51939 | -100.51386 | 36964 ft | 539 kts | 76° |
| 2026-04-25 21:59 | 40.53320 | -100.42622 | 36967 ft | 539 kts | 77° |
| 2026-04-25 22:00 | 40.55373 | -100.29494 | 36954 ft | 538 kts | 77° |
| 2026-04-25 22:00 | 40.56730 | -100.20752 | 36949 ft | 538 kts | 77° |
| 2026-04-25 22:01 | 40.58082 | -100.12000 | 36952 ft | 538 kts | 77° |
| 2026-04-25 22:01 | 40.59195 | -100.04759 | 36960 ft | 538 kts | 77° |
| 2026-04-25 22:02 | 40.60757 | -99.94543 | 36965 ft | 536 kts | 77° |
| 2026-04-25 22:02 | 40.62087 | -99.85791 | 36966 ft | 536 kts | 77° |
| 2026-04-25 22:03 | 40.63407 | -99.77058 | 36968 ft | 536 kts | 77° |
| 2026-04-25 22:03 | 40.64453 | -99.70099 | 36963 ft | 535 kts | 77° |
| 2026-04-25 22:04 | 40.65747 | -99.61459 | 36954 ft | 533 kts | 77° |
| 2026-04-25 22:04 | 40.67018 | -99.52918 | 36950 ft | 533 kts | 77° |
| 2026-04-25 22:05 | 40.68296 | -99.44292 | 36941 ft | 532 kts | 77° |
| 2026-04-25 22:05 | 40.69570 | -99.35644 | 36942 ft | 531 kts | 77° |
| 2026-04-25 22:06 | 40.70836 | -99.26999 | 36929 ft | 531 kts | 78° |
| 2026-04-25 22:06 | 40.72100 | -99.18325 | 36934 ft | 531 kts | 78° |
| 2026-04-25 22:07 | 40.73144 | -99.11124 | 36940 ft | 530 kts | 78° |
| 2026-04-25 22:07 | 40.74597 | -99.01042 | 36940 ft | 529 kts | 78° |
| 2026-04-25 22:08 | 40.75826 | -98.92466 | 36944 ft | 529 kts | 78° |
| 2026-04-25 22:08 | 40.77055 | -98.83845 | 36933 ft | 527 kts | 78° |
| 2026-04-25 22:09 | 40.78273 | -98.75245 | 36932 ft | 527 kts | 78° |
| 2026-04-25 22:09 | 40.79487 | -98.66631 | 36929 ft | 526 kts | 78° |
| 2026-04-25 22:10 | 40.80681 | -98.58110 | 36935 ft | 527 kts | 78° |
| 2026-04-25 22:10 | 40.81881 | -98.49499 | 36932 ft | 525 kts | 78° |
| 2026-04-25 22:11 | 40.83074 | -98.40883 | 36926 ft | 525 kts | 78° |
| 2026-04-25 22:11 | 40.84268 | -98.32217 | 36911 ft | 524 kts | 79° |
| 2026-04-25 22:12 | 40.85450 | -98.23586 | 36908 ft | 525 kts | 79° |
| 2026-04-25 22:12 | 40.86433 | -98.16370 | 36907 ft | 523 kts | 79° |
| 2026-04-25 22:13 | 40.87783 | -98.06396 | 36903 ft | 524 kts | 79° |
| 2026-04-25 22:13 | 40.88934 | -97.97847 | 36894 ft | 522 kts | 79° |
| 2026-04-25 22:14 | 40.90068 | -97.89372 | 36900 ft | 523 kts | 79° |
| 2026-04-25 22:14 | 40.91202 | -97.80840 | 36890 ft | 523 kts | 79° |
| 2026-04-25 22:15 | 40.92333 | -97.72290 | 36894 ft | 523 kts | 80° |
| 2026-04-25 22:16 | 40.94011 | -97.59506 | 36897 ft | 524 kts | 80° |
| 2026-04-25 22:16 | 40.95128 | -97.50935 | 36899 ft | 522 kts | 80° |
| 2026-04-25 22:17 | 40.96230 | -97.42420 | 36905 ft | 523 kts | 80° |
| 2026-04-25 22:17 | 40.97326 | -97.33903 | 36911 ft | 522 kts | 81° |
| 2026-04-25 22:18 | 40.98434 | -97.25243 | 36910 ft | 524 kts | 81° |
| 2026-04-25 22:18 | 40.99520 | -97.16700 | 36902 ft | 525 kts | 81° |
| 2026-04-25 22:19 | 41.00604 | -97.08121 | 36908 ft | 524 kts | 81° |
| 2026-04-25 22:19 | 41.01677 | -96.99580 | 36908 ft | 524 kts | 81° |
| 2026-04-25 22:20 | 41.02749 | -96.90988 | 36904 ft | 523 kts | 81° |
| 2026-04-25 22:20 | 41.03818 | -96.82369 | 36911 ft | 525 kts | 81° |
| 2026-04-25 22:21 | 41.04888 | -96.73688 | 36910 ft | 524 kts | 81° |
| 2026-04-25 22:21 | 41.05957 | -96.64954 | 36913 ft | 524 kts | 81° |
| 2026-04-25 22:22 | 41.06992 | -96.56448 | 36911 ft | 526 kts | 81° |
| 2026-04-25 22:22 | 41.08038 | -96.47791 | 36900 ft | 526 kts | 81° |
| 2026-04-25 22:23 | 41.09090 | -96.39025 | 36890 ft | 524 kts | 80° |
| 2026-04-25 22:23 | 41.10134 | -96.30280 | 36888 ft | 526 kts | 81° |
| 2026-04-25 22:24 | 41.11161 | -96.21607 | 36898 ft | 524 kts | 81° |
| 2026-04-25 22:24 | 41.12185 | -96.12914 | 36903 ft | 525 kts | 81° |
| 2026-04-25 22:25 | 41.13199 | -96.04233 | 36898 ft | 524 kts | 81° |
| 2026-04-25 22:25 | 41.14212 | -95.95513 | 36904 ft | 525 kts | 81° |
| 2026-04-25 22:26 | 41.15232 | -95.86663 | 36909 ft | 526 kts | 81° |
| 2026-04-25 22:26 | 41.16231 | -95.77943 | 36918 ft | 525 kts | 81° |
| 2026-04-25 22:27 | 41.17288 | -95.69183 | 36919 ft | 524 kts | 79° |
| 2026-04-25 22:27 | 41.18496 | -95.60574 | 36922 ft | 526 kts | 79° |
| 2026-04-25 22:28 | 41.19706 | -95.51889 | 36921 ft | 524 kts | 79° |
| 2026-04-25 22:28 | 41.20893 | -95.43264 | 36920 ft | 526 kts | 79° |
| 2026-04-25 22:29 | 41.22070 | -95.34646 | 36925 ft | 525 kts | 79° |
| 2026-04-25 22:29 | 41.23250 | -95.25935 | 36919 ft | 525 kts | 80° |
| 2026-04-25 22:30 | 41.24977 | -95.13071 | 36920 ft | 523 kts | 79° |
| 2026-04-25 22:30 | 41.25922 | -95.05983 | 36924 ft | 526 kts | 79° |
| 2026-04-25 22:31 | 41.27249 | -94.95966 | 36924 ft | 525 kts | 79° |
| 2026-04-25 22:31 | 41.28383 | -94.87345 | 36930 ft | 523 kts | 79° |
| 2026-04-25 22:32 | 41.29505 | -94.78767 | 36933 ft | 524 kts | 79° |
| 2026-04-25 22:32 | 41.30632 | -94.70098 | 36935 ft | 523 kts | 79° |
| 2026-04-25 22:33 | 41.31752 | -94.61427 | 36943 ft | 522 kts | 79° |
| 2026-04-25 22:33 | 41.32850 | -94.52876 | 36946 ft | 522 kts | 79° |
| 2026-04-25 22:34 | 41.33947 | -94.44284 | 36954 ft | 521 kts | 79° |
| 2026-04-25 22:34 | 41.35039 | -94.35667 | 36955 ft | 520 kts | 79° |
| 2026-04-25 22:35 | 41.36123 | -94.27067 | 36952 ft | 521 kts | 80° |
| 2026-04-25 22:35 | 41.37204 | -94.18437 | 36945 ft | 521 kts | 80° |
| 2026-04-25 22:36 | 41.38282 | -94.09774 | 36942 ft | 519 kts | 80° |
| 2026-04-25 22:36 | 41.39349 | -94.01149 | 36948 ft | 519 kts | 80° |
| 2026-04-25 22:37 | 41.40405 | -93.92551 | 36950 ft | 520 kts | 80° |
| 2026-04-25 22:37 | 41.41456 | -93.83948 | 36954 ft | 519 kts | 80° |
| 2026-04-25 22:38 | 41.42508 | -93.75274 | 36954 ft | 520 kts | 80° |
| 2026-04-25 22:38 | 41.43544 | -93.66672 | 36955 ft | 518 kts | 80° |
| 2026-04-25 22:39 | 41.44483 | -93.57933 | 36958 ft | 520 kts | 82° |
| 2026-04-25 22:39 | 41.45308 | -93.49271 | 36961 ft | 518 kts | 82° |
| 2026-04-25 22:40 | 41.46133 | -93.40598 | 36960 ft | 519 kts | 82° |
| 2026-04-25 22:40 | 41.46955 | -93.31938 | 36953 ft | 519 kts | 83° |
| 2026-04-25 22:41 | 41.47774 | -93.23269 | 36955 ft | 518 kts | 82° |
| 2026-04-25 22:41 | 41.48594 | -93.14535 | 36962 ft | 519 kts | 83° |
| 2026-04-25 22:42 | 41.49405 | -93.05832 | 36966 ft | 518 kts | 82° |
| 2026-04-25 22:42 | 41.50211 | -92.97119 | 36964 ft | 519 kts | 82° |
| 2026-04-25 22:43 | 41.51007 | -92.88439 | 36971 ft | 518 kts | 83° |
| 2026-04-25 22:43 | 41.51797 | -92.79752 | 36983 ft | 517 kts | 83° |
| 2026-04-25 22:44 | 41.52584 | -92.71017 | 36979 ft | 518 kts | 83° |
| 2026-04-25 22:44 | 41.53366 | -92.62274 | 36971 ft | 517 kts | 82° |
| 2026-04-25 22:45 | 41.54139 | -92.53559 | 36974 ft | 516 kts | 83° |
| 2026-04-25 22:45 | 41.54900 | -92.44898 | 36983 ft | 515 kts | 83° |
| 2026-04-25 22:46 | 41.55650 | -92.36289 | 36979 ft | 515 kts | 83° |
| 2026-04-25 22:46 | 41.56399 | -92.27615 | 36971 ft | 514 kts | 83° |
| 2026-04-25 22:47 | 41.57136 | -92.19004 | 36979 ft | 514 kts | 83° |
| 2026-04-25 22:47 | 41.57869 | -92.10362 | 36973 ft | 513 kts | 83° |
| 2026-04-25 22:48 | 41.58594 | -92.01735 | 36979 ft | 514 kts | 83° |
| 2026-04-25 22:48 | 41.59310 | -91.93134 | 36972 ft | 512 kts | 83° |
| 2026-04-25 22:49 | 41.60017 | -91.84566 | 36975 ft | 512 kts | 83° |
| 2026-04-25 22:49 | 41.60723 | -91.75937 | 36981 ft | 512 kts | 83° |
| 2026-04-25 22:50 | 41.61425 | -91.67266 | 36988 ft | 512 kts | 83° |
| 2026-04-25 22:50 | 41.62122 | -91.58578 | 36995 ft | 512 kts | 83° |
| 2026-04-25 22:51 | 41.62807 | -91.49953 | 36998 ft | 512 kts | 83° |
| 2026-04-25 22:51 | 41.63488 | -91.41295 | 36997 ft | 511 kts | 83° |
| 2026-04-25 22:52 | 41.64162 | -91.32645 | 36987 ft | 512 kts | 84° |
| 2026-04-25 22:52 | 41.64719 | -91.25440 | 36981 ft | 511 kts | 84° |
| 2026-04-25 22:53 | 41.65492 | -91.15329 | 36981 ft | 512 kts | 84° |
| 2026-04-25 22:53 | 41.66149 | -91.06634 | 36988 ft | 510 kts | 84° |
| 2026-04-25 22:54 | 41.66798 | -90.97970 | 36985 ft | 510 kts | 84° |
| 2026-04-25 22:54 | 41.67434 | -90.89383 | 36991 ft | 511 kts | 84° |
| 2026-04-25 22:55 | 41.68071 | -90.80691 | 36997 ft | 510 kts | 84° |
| 2026-04-25 22:55 | 41.68693 | -90.72113 | 36997 ft | 511 kts | 84° |
| 2026-04-25 22:56 | 41.69320 | -90.63385 | 37001 ft | 510 kts | 84° |
| 2026-04-25 22:56 | 41.69934 | -90.54748 | 37004 ft | 510 kts | 84° |
| 2026-04-25 22:57 | 41.70547 | -90.46013 | 37009 ft | 510 kts | 84° |
| 2026-04-25 22:57 | 41.71148 | -90.37367 | 37010 ft | 509 kts | 84° |
| 2026-04-25 22:58 | 41.71746 | -90.28674 | 37002 ft | 509 kts | 85° |
| 2026-04-25 22:58 | 41.72337 | -90.19978 | 37003 ft | 510 kts | 85° |
| 2026-04-25 22:59 | 41.72929 | -90.11160 | 37004 ft | 510 kts | 85° |
| 2026-04-25 22:59 | 41.73500 | -90.02576 | 37001 ft | 509 kts | 85° |
| 2026-04-25 23:00 | 41.74070 | -89.93883 | 36999 ft | 508 kts | 85° |
| 2026-04-25 23:00 | 41.74632 | -89.85236 | 37011 ft | 509 kts | 85° |
| 2026-04-25 23:01 | 41.75193 | -89.76480 | 37016 ft | 508 kts | 85° |
| 2026-04-25 23:01 | 41.75742 | -89.67818 | 37022 ft | 509 kts | 85° |
| 2026-04-25 23:02 | 41.76291 | -89.59053 | 37023 ft | 507 kts | 85° |
| 2026-04-25 23:02 | 41.76834 | -89.50276 | 37023 ft | 508 kts | 85° |
| 2026-04-25 23:03 | 41.77381 | -89.41309 | 37021 ft | 509 kts | 85° |
| 2026-04-25 23:03 | 41.77922 | -89.32330 | 37019 ft | 508 kts | 85° |
| 2026-04-25 23:04 | 41.78355 | -89.25053 | 37015 ft | 507 kts | 85° |
| 2026-04-25 23:04 | 41.78960 | -89.14766 | 37026 ft | 507 kts | 85° |
| 2026-04-25 23:05 | 41.79472 | -89.05927 | 37029 ft | 507 kts | 85° |
| 2026-04-25 23:05 | 41.79989 | -88.96883 | 37032 ft | 507 kts | 85° |
| 2026-04-25 23:06 | 41.80497 | -88.87884 | 37040 ft | 506 kts | 85° |
| 2026-04-25 23:06 | 41.80983 | -88.79129 | 37049 ft | 507 kts | 85° |
| 2026-04-25 23:07 | 41.81461 | -88.70409 | 37051 ft | 506 kts | 85° |
| 2026-04-25 23:07 | 41.81938 | -88.61584 | 37049 ft | 506 kts | 85° |
| 2026-04-25 23:08 | 41.82415 | -88.52640 | 37051 ft | 506 kts | 85° |
| 2026-04-25 23:08 | 41.82881 | -88.43755 | 37055 ft | 506 kts | 85° |
| 2026-04-25 23:09 | 41.83346 | -88.34764 | 37050 ft | 506 kts | 86° |
| 2026-04-25 23:09 | 41.83798 | -88.25888 | 37042 ft | 507 kts | 86° |
| 2026-04-25 23:10 | 41.84252 | -88.16836 | 37049 ft | 506 kts | 85° |
| 2026-04-25 23:10 | 41.84691 | -88.07947 | 37048 ft | 506 kts | 85° |
| 2026-04-25 23:11 | 41.85114 | -87.99238 | 37052 ft | 506 kts | 85° |
| 2026-04-25 23:11 | 41.85532 | -87.90496 | 37049 ft | 506 kts | 85° |
| 2026-04-25 23:12 | 41.85944 | -87.81740 | 37053 ft | 506 kts | 85° |
| 2026-04-25 23:12 | 41.86350 | -87.72979 | 37055 ft | 506 kts | 85° |
| 2026-04-25 23:13 | 41.86744 | -87.64323 | 37056 ft | 506 kts | 85° |
| 2026-04-25 23:13 | 41.87128 | -87.55747 | 37058 ft | 505 kts | 85° |
| 2026-04-25 23:14 | 41.87505 | -87.47183 | 37058 ft | 505 kts | 85° |
| 2026-04-25 23:14 | 41.87872 | -87.38713 | 37056 ft | 505 kts | 85° |
| 2026-04-25 23:15 | 41.88235 | -87.30163 | 37049 ft | 505 kts | 86° |
| 2026-04-25 23:15 | 41.88589 | -87.21700 | 37054 ft | 505 kts | 86° |
| 2026-04-25 23:16 | 41.88934 | -87.13295 | 37050 ft | 504 kts | 86° |
| 2026-04-25 23:16 | 41.89280 | -87.04726 | 37048 ft | 505 kts | 86° |
| 2026-04-25 23:17 | 41.89620 | -86.96133 | 37050 ft | 504 kts | 86° |
| 2026-04-25 23:17 | 41.89955 | -86.87503 | 37061 ft | 504 kts | 86° |
| 2026-04-25 23:18 | 41.90286 | -86.78799 | 37065 ft | 505 kts | 86° |
| 2026-04-25 23:18 | 41.90620 | -86.69852 | 37049 ft | 505 kts | 86° |
| 2026-04-25 23:19 | 41.90940 | -86.61085 | 37041 ft | 505 kts | 86° |
| 2026-04-25 23:19 | 41.91256 | -86.52268 | 37038 ft | 505 kts | 86° |
| 2026-04-25 23:20 | 41.91566 | -86.43409 | 37041 ft | 506 kts | 86° |
| 2026-04-25 23:20 | 41.91869 | -86.34542 | 37036 ft | 505 kts | 87° |
| 2026-04-25 23:21 | 41.92165 | -86.25686 | 37031 ft | 504 kts | 87° |
| 2026-04-25 23:21 | 41.92463 | -86.16578 | 37036 ft | 505 kts | 87° |
| 2026-04-25 23:22 | 41.92744 | -86.07764 | 37025 ft | 504 kts | 87° |
| 2026-04-25 23:23 | 41.93172 | -85.93916 | 37027 ft | 503 kts | 86° |
| 2026-04-25 23:23 | 41.93437 | -85.85042 | 37031 ft | 505 kts | 87° |
| 2026-04-25 23:24 | 41.93695 | -85.76170 | 37029 ft | 503 kts | 86° |
| 2026-04-25 23:24 | 41.93947 | -85.67316 | 37036 ft | 505 kts | 87° |
| 2026-04-25 23:25 | 41.94190 | -85.58515 | 37034 ft | 505 kts | 86° |
| 2026-04-25 23:25 | 41.94426 | -85.49705 | 37041 ft | 505 kts | 86° |
| 2026-04-25 23:26 | 41.94655 | -85.40904 | 37047 ft | 505 kts | 86° |
| 2026-04-25 23:26 | 41.94882 | -85.31933 | 37041 ft | 505 kts | 87° |
| 2026-04-25 23:27 | 41.95072 | -85.23146 | 37035 ft | 506 kts | 89° |
| 2026-04-25 23:27 | 41.95074 | -85.14320 | 37042 ft | 506 kts | 89° |
| 2026-04-25 23:28 | 41.95052 | -85.05376 | 37043 ft | 506 kts | 89° |
| 2026-04-25 23:28 | 41.95021 | -84.96609 | 37043 ft | 506 kts | 89° |
| 2026-04-25 23:29 | 41.94984 | -84.87859 | 37044 ft | 506 kts | 89° |
| 2026-04-25 23:29 | 41.94939 | -84.79034 | 37034 ft | 506 kts | 89° |
| 2026-04-25 23:30 | 41.94886 | -84.70138 | 37045 ft | 507 kts | 89° |
| 2026-04-25 23:30 | 41.94828 | -84.61387 | 37040 ft | 506 kts | 89° |
| 2026-04-25 23:31 | 41.94762 | -84.52531 | 37040 ft | 508 kts | 89° |
| 2026-04-25 23:31 | 41.94688 | -84.43667 | 37041 ft | 509 kts | 89° |
| 2026-04-25 23:32 | 41.94609 | -84.34839 | 37032 ft | 509 kts | 90° |
| 2026-04-25 23:32 | 41.94521 | -84.25880 | 37026 ft | 509 kts | 90° |
| 2026-04-25 23:33 | 41.94427 | -84.17002 | 37036 ft | 509 kts | 90° |
| 2026-04-25 23:33 | 41.94325 | -84.07978 | 37042 ft | 510 kts | 90° |
| 2026-04-25 23:34 | 41.94215 | -83.98891 | 37051 ft | 511 kts | 90° |
| 2026-04-25 23:34 | 41.94101 | -83.90046 | 37041 ft | 508 kts | 90° |
| 2026-04-25 23:35 | 41.93982 | -83.81341 | 37038 ft | 510 kts | 90° |
| 2026-04-25 23:35 | 41.93856 | -83.72678 | 37030 ft | 508 kts | 90° |
| 2026-04-25 23:36 | 41.93724 | -83.63950 | 37026 ft | 510 kts | 90° |
| 2026-04-25 23:36 | 41.93584 | -83.55181 | 37029 ft | 509 kts | 90° |
| 2026-04-25 23:37 | 41.93457 | -83.46564 | 37023 ft | 507 kts | 89° |
| 2026-04-25 23:37 | 41.93430 | -83.37859 | 37041 ft | 510 kts | 89° |
| 2026-04-25 23:38 | 41.93398 | -83.29182 | 37039 ft | 507 kts | 90° |
| 2026-04-25 23:38 | 41.93356 | -83.20507 | 37032 ft | 508 kts | 90° |
| 2026-04-25 23:39 | 41.93307 | -83.11903 | 37022 ft | 507 kts | 90° |
| 2026-04-25 23:39 | 41.93250 | -83.03348 | 37022 ft | 507 kts | 90° |
| 2026-04-25 23:40 | 41.93185 | -82.94707 | 37018 ft | 508 kts | 90° |
| 2026-04-25 23:40 | 41.93115 | -82.86169 | 37023 ft | 508 kts | 90° |
| 2026-04-25 23:41 | 41.93038 | -82.77608 | 37017 ft | 508 kts | 90° |
| 2026-04-25 23:41 | 41.92955 | -82.69148 | 37022 ft | 510 kts | 90° |
| 2026-04-25 23:42 | 41.92866 | -82.60667 | 37024 ft | 509 kts | 90° |
| 2026-04-25 23:42 | 41.92771 | -82.52212 | 37026 ft | 509 kts | 90° |
| 2026-04-25 23:43 | 41.92669 | -82.43711 | 37031 ft | 508 kts | 90° |
| 2026-04-25 23:43 | 41.92561 | -82.35214 | 37031 ft | 509 kts | 90° |
| 2026-04-25 23:44 | 41.92446 | -82.26759 | 37038 ft | 509 kts | 91° |
| 2026-04-25 23:44 | 41.92327 | -82.18308 | 37025 ft | 507 kts | 91° |
| 2026-04-25 23:45 | 41.92199 | -82.09784 | 37029 ft | 510 kts | 91° |
| 2026-04-25 23:45 | 41.92068 | -82.01406 | 37035 ft | 507 kts | 91° |
| 2026-04-25 23:46 | 41.91931 | -81.93081 | 37035 ft | 510 kts | 92° |
| 2026-04-25 23:46 | 41.91791 | -81.84965 | 37029 ft | 510 kts | 92° |
| 2026-04-25 23:47 | 41.91157 | -81.76183 | 37032 ft | 509 kts | 97° |
| 2026-04-25 23:47 | 41.90405 | -81.67690 | 37034 ft | 510 kts | 97° |
| 2026-04-25 23:48 | 41.89645 | -81.59190 | 37037 ft | 511 kts | 97° |
| 2026-04-25 23:48 | 41.88873 | -81.50626 | 37038 ft | 511 kts | 97° |
| 2026-04-25 23:49 | 41.88090 | -81.42004 | 37037 ft | 512 kts | 97° |
| 2026-04-25 23:49 | 41.87296 | -81.33330 | 37035 ft | 511 kts | 98° |
| 2026-04-25 23:50 | 41.86496 | -81.24654 | 37033 ft | 513 kts | 98° |
| 2026-04-25 23:50 | 41.85690 | -81.16000 | 37031 ft | 513 kts | 98° |
| 2026-04-25 23:51 | 41.84863 | -81.07192 | 37028 ft | 513 kts | 98° |
| 2026-04-25 23:51 | 41.84039 | -80.98486 | 37033 ft | 514 kts | 98° |
| 2026-04-25 23:52 | 41.83202 | -80.89718 | 37025 ft | 513 kts | 98° |
| 2026-04-25 23:52 | 41.82373 | -80.81098 | 37019 ft | 514 kts | 98° |
| 2026-04-25 23:53 | 41.81534 | -80.72446 | 37020 ft | 514 kts | 98° |
| 2026-04-25 23:53 | 41.80683 | -80.63740 | 37010 ft | 513 kts | 98° |
| 2026-04-25 23:54 | 41.79835 | -80.55132 | 37012 ft | 513 kts | 98° |
| 2026-04-25 23:54 | 41.78983 | -80.46551 | 37001 ft | 513 kts | 98° |
| 2026-04-25 23:55 | 41.78096 | -80.37693 | 36996 ft | 513 kts | 98° |
| 2026-04-25 23:55 | 41.77215 | -80.28968 | 36974 ft | 513 kts | 99° |
| 2026-04-25 23:56 | 41.76320 | -80.20167 | 36980 ft | 512 kts | 99° |
| 2026-04-25 23:56 | 41.75425 | -80.11437 | 36976 ft | 513 kts | 99° |
| 2026-04-25 23:57 | 41.74528 | -80.02750 | 36968 ft | 512 kts | 99° |
| 2026-04-25 23:57 | 41.73627 | -79.94091 | 36955 ft | 512 kts | 99° |
| 2026-04-25 23:58 | 41.72722 | -79.85458 | 36954 ft | 513 kts | 99° |
| 2026-04-25 23:58 | 41.71804 | -79.76769 | 36951 ft | 514 kts | 99° |
| 2026-04-25 23:59 | 41.70872 | -79.68004 | 36949 ft | 515 kts | 99° |
| 2026-04-25 23:59 | 41.69944 | -79.59347 | 36948 ft | 515 kts | 100° |
| 2026-04-26 00:00 | 41.69006 | -79.50661 | 36945 ft | 516 kts | 100° |
| 2026-04-26 00:00 | 41.68058 | -79.41944 | 36943 ft | 517 kts | 100° |
| 2026-04-26 00:01 | 41.67410 | -79.36025 | 36948 ft | 516 kts | 100° |
| 2026-04-26 00:01 | 41.66452 | -79.27321 | 36936 ft | 516 kts | 101° |
| 2026-04-26 00:02 | 41.65481 | -79.18558 | 36934 ft | 517 kts | 101° |
| 2026-04-26 00:02 | 41.64511 | -79.09883 | 36935 ft | 518 kts | 101° |
| 2026-04-26 00:03 | 41.63525 | -79.01114 | 36938 ft | 519 kts | 101° |
| 2026-04-26 00:03 | 41.62502 | -78.92095 | 36935 ft | 519 kts | 101° |
| 2026-04-26 00:04 | 41.61833 | -78.86225 | 36943 ft | 519 kts | 101° |
| 2026-04-26 00:04 | 41.60824 | -78.77426 | 36942 ft | 519 kts | 102° |
| 2026-04-26 00:05 | 41.59806 | -78.68610 | 36946 ft | 521 kts | 101° |
| 2026-04-26 00:05 | 41.58767 | -78.59679 | 36944 ft | 520 kts | 102° |
| 2026-04-26 00:06 | 41.57740 | -78.50902 | 36951 ft | 521 kts | 102° |
| 2026-04-26 00:06 | 41.56687 | -78.41975 | 36950 ft | 520 kts | 102° |
| 2026-04-26 00:07 | 41.55632 | -78.33083 | 36946 ft | 520 kts | 103° |
| 2026-04-26 00:07 | 41.54583 | -78.24298 | 36855 ft | 514 kts | 102° |
| 2026-04-26 00:07 | 41.54059 | -78.19925 | 36394 ft | 511 kts | 103° |
| 2026-04-26 00:08 | 41.53537 | -78.15601 | 35642 ft | 516 kts | 103° |
| 2026-04-26 00:08 | 41.53003 | -78.11201 | 34790 ft | 524 kts | 104° |
| 2026-04-26 00:08 | 41.52470 | -78.06819 | 33984 ft | 529 kts | 104° |
| 2026-04-26 00:08 | 41.51920 | -78.02308 | 33291 ft | 530 kts | 104° |
| 2026-04-26 00:09 | 41.51377 | -77.97845 | 32963 ft | 520 kts | 103° |
| 2026-04-26 00:09 | 41.50815 | -77.93465 | 32946 ft | 503 kts | 105° |
| 2026-04-26 00:09 | 41.50222 | -77.89253 | 32944 ft | 496 kts | 105° |
| 2026-04-26 00:10 | 41.48999 | -77.80720 | 32954 ft | 506 kts | 105° |
| 2026-04-26 00:10 | 41.47785 | -77.72239 | 32963 ft | 506 kts | 105° |
| 2026-04-26 00:11 | 41.46565 | -77.63732 | 32961 ft | 507 kts | 105° |
| 2026-04-26 00:11 | 41.45351 | -77.55299 | 32960 ft | 506 kts | 105° |
| 2026-04-26 00:12 | 41.44153 | -77.47015 | 32956 ft | 507 kts | 105° |
| 2026-04-26 00:12 | 41.42936 | -77.38644 | 32966 ft | 509 kts | 105° |
| 2026-04-26 00:13 | 41.41724 | -77.30345 | 32963 ft | 507 kts | 105° |
| 2026-04-26 00:13 | 41.40505 | -77.22036 | 32980 ft | 507 kts | 105° |
| 2026-04-26 00:14 | 41.39292 | -77.13818 | 32983 ft | 507 kts | 105° |
| 2026-04-26 00:14 | 41.38051 | -77.05448 | 32620 ft | 501 kts | 105° |
| 2026-04-26 00:14 | 41.37439 | -77.01333 | 32073 ft | 498 kts | 105° |
| 2026-04-26 00:15 | 41.36828 | -76.97237 | 31517 ft | 495 kts | 104° |
| 2026-04-26 00:15 | 41.36214 | -76.93134 | 30989 ft | 491 kts | 104° |
| 2026-04-26 00:15 | 41.35606 | -76.89078 | 30471 ft | 487 kts | 104° |
| 2026-04-26 00:15 | 41.35000 | -76.85049 | 29952 ft | 484 kts | 104° |
| 2026-04-26 00:16 | 41.34406 | -76.81113 | 29448 ft | 480 kts | 104° |
| 2026-04-26 00:16 | 41.33691 | -76.77087 | 28917 ft | 474 kts | 110° |
| 2026-04-26 00:16 | 41.32749 | -76.73345 | 28413 ft | 470 kts | 112° |
| 2026-04-26 00:16 | 41.31757 | -76.69604 | 27890 ft | 467 kts | 112° |
| 2026-04-26 00:17 | 41.30768 | -76.65898 | 27357 ft | 464 kts | 112° |
| 2026-04-26 00:17 | 41.29783 | -76.62213 | 26834 ft | 461 kts | 112° |
| 2026-04-26 00:17 | 41.28809 | -76.58573 | 26302 ft | 458 kts | 111° |
| 2026-04-26 00:17 | 41.27850 | -76.54996 | 25779 ft | 456 kts | 111° |
| 2026-04-26 00:18 | 41.26906 | -76.51482 | 25261 ft | 453 kts | 111° |
| 2026-04-26 00:18 | 41.25946 | -76.47914 | 24728 ft | 450 kts | 111° |
| 2026-04-26 00:18 | 41.25001 | -76.44404 | 24212 ft | 448 kts | 111° |
| 2026-04-26 00:18 | 41.24071 | -76.40952 | 23694 ft | 446 kts | 110° |
| 2026-04-26 00:19 | 41.23126 | -76.37454 | 23163 ft | 444 kts | 110° |
| 2026-04-26 00:19 | 41.22183 | -76.33967 | 22629 ft | 442 kts | 111° |
| 2026-04-26 00:19 | 41.21242 | -76.30494 | 22084 ft | 439 kts | 111° |
| 2026-04-26 00:19 | 41.20315 | -76.27074 | 21545 ft | 437 kts | 111° |
| 2026-04-26 00:20 | 41.19375 | -76.23613 | 20996 ft | 435 kts | 111° |
| 2026-04-26 00:20 | 41.18450 | -76.20213 | 20458 ft | 433 kts | 110° |
| 2026-04-26 00:20 | 41.17532 | -76.16840 | 19914 ft | 431 kts | 110° |
| 2026-04-26 00:20 | 41.16606 | -76.13444 | 19358 ft | 429 kts | 110° |
| 2026-04-26 00:21 | 41.15698 | -76.10122 | 18812 ft | 427 kts | 110° |
| 2026-04-26 00:21 | 41.14773 | -76.06739 | 18258 ft | 425 kts | 110° |
| 2026-04-26 00:21 | 41.13879 | -76.03475 | 17757 ft | 422 kts | 110° |
| 2026-04-26 00:21 | 41.12967 | -76.00148 | 17412 ft | 413 kts | 110° |
| 2026-04-26 00:22 | 41.12085 | -75.96934 | 17152 ft | 404 kts | 110° |
| 2026-04-26 00:22 | 41.11223 | -75.93800 | 16811 ft | 397 kts | 110° |
| 2026-04-26 00:22 | 41.10364 | -75.90680 | 16429 ft | 392 kts | 110° |
| 2026-04-26 00:22 | 41.09517 | -75.87607 | 16097 ft | 387 kts | 110° |
| 2026-04-26 00:23 | 41.08676 | -75.84560 | 15773 ft | 387 kts | 110° |
| 2026-04-26 00:23 | 41.07820 | -75.81462 | 15456 ft | 387 kts | 111° |
| 2026-04-26 00:23 | 41.06966 | -75.78375 | 15140 ft | 385 kts | 110° |
| 2026-04-26 00:23 | 41.06114 | -75.75301 | 14802 ft | 383 kts | 111° |
| 2026-04-26 00:24 | 41.05274 | -75.72272 | 14493 ft | 381 kts | 111° |
| 2026-04-26 00:24 | 41.04431 | -75.69239 | 14162 ft | 380 kts | 111° |
| 2026-04-26 00:24 | 41.03586 | -75.66198 | 13839 ft | 376 kts | 111° |
| 2026-04-26 00:24 | 41.02757 | -75.63219 | 13518 ft | 375 kts | 110° |
| 2026-04-26 00:25 | 41.01923 | -75.60227 | 13216 ft | 375 kts | 111° |
| 2026-04-26 00:25 | 41.01081 | -75.57209 | 12880 ft | 374 kts | 110° |
| 2026-04-26 00:25 | 41.00251 | -75.54233 | 12572 ft | 372 kts | 110° |
| 2026-04-26 00:25 | 40.99429 | -75.51292 | 12345 ft | 374 kts | 110° |
| 2026-04-26 00:26 | 40.98585 | -75.48274 | 12087 ft | 372 kts | 111° |
| 2026-04-26 00:26 | 40.97748 | -75.45289 | 11832 ft | 372 kts | 110° |
| 2026-04-26 00:26 | 40.96915 | -75.42316 | 11558 ft | 369 kts | 110° |
| 2026-04-26 00:26 | 40.96098 | -75.39405 | 11276 ft | 361 kts | 110° |
| 2026-04-26 00:27 | 40.95268 | -75.36450 | 10993 ft | 352 kts | 110° |
| 2026-04-26 00:27 | 40.94454 | -75.33555 | 10751 ft | 343 kts | 111° |
| 2026-04-26 00:27 | 40.93666 | -75.30758 | 10534 ft | 334 kts | 112° |
| 2026-04-26 00:27 | 40.92908 | -75.28068 | 10301 ft | 327 kts | 111° |
| 2026-04-26 00:28 | 40.92169 | -75.25450 | 10069 ft | 321 kts | 112° |
| 2026-04-26 00:28 | 40.91438 | -75.22863 | 9838 ft | 315 kts | 112° |
| 2026-04-26 00:28 | 40.90697 | -75.20241 | 9572 ft | 310 kts | 112° |
| 2026-04-26 00:28 | 40.89963 | -75.17648 | 9316 ft | 305 kts | 113° |
| 2026-04-26 00:29 | 40.89249 | -75.15129 | 9078 ft | 300 kts | 113° |
| 2026-04-26 00:29 | 40.88572 | -75.12743 | 8822 ft | 296 kts | 113° |
| 2026-04-26 00:29 | 40.87916 | -75.10431 | 8625 ft | 294 kts | 114° |
| 2026-04-26 00:29 | 40.87264 | -75.08122 | 8421 ft | 291 kts | 114° |
| 2026-04-26 00:30 | 40.86616 | -75.05821 | 8217 ft | 288 kts | 114° |
| 2026-04-26 00:30 | 40.85967 | -75.03520 | 7993 ft | 284 kts | 114° |
| 2026-04-26 00:30 | 40.85322 | -75.01235 | 7782 ft | 281 kts | 115° |
| 2026-04-26 00:30 | 40.84683 | -74.98977 | 7554 ft | 279 kts | 115° |
| 2026-04-26 00:31 | 40.83859 | -74.96879 | 7472 ft | 273 kts | 131° |
| 2026-04-26 00:31 | 40.82766 | -74.95049 | 7493 ft | 270 kts | 133° |
| 2026-04-26 00:31 | 40.81633 | -74.93211 | 7482 ft | 269 kts | 134° |
| 2026-04-26 00:31 | 40.80502 | -74.91379 | 7464 ft | 268 kts | 134° |
| 2026-04-26 00:32 | 40.79351 | -74.89520 | 7464 ft | 267 kts | 134° |
| 2026-04-26 00:32 | 40.78250 | -74.87741 | 7471 ft | 267 kts | 134° |
| 2026-04-26 00:32 | 40.75954 | -74.84038 | 7478 ft | 267 kts | 134° |
| 2026-04-26 00:33 | 40.74841 | -74.82243 | 7487 ft | 267 kts | 134° |
| 2026-04-26 00:33 | 40.73747 | -74.80479 | 7482 ft | 267 kts | 134° |
| 2026-04-26 00:33 | 40.72635 | -74.78689 | 7490 ft | 267 kts | 134° |
| 2026-04-26 00:33 | 40.71528 | -74.76907 | 7493 ft | 269 kts | 134° |
| 2026-04-26 00:34 | 40.70433 | -74.75147 | 7495 ft | 268 kts | 134° |
| 2026-04-26 00:34 | 40.69332 | -74.73377 | 7499 ft | 267 kts | 134° |
| 2026-04-26 00:34 | 40.68211 | -74.71576 | 7385 ft | 269 kts | 134° |
| 2026-04-26 00:34 | 40.67125 | -74.69832 | 7183 ft | 265 kts | 134° |
| 2026-04-26 00:35 | 40.66051 | -74.68106 | 6976 ft | 261 kts | 134° |
| 2026-04-26 00:35 | 40.64978 | -74.66383 | 6775 ft | 258 kts | 134° |
| 2026-04-26 00:35 | 40.63916 | -74.64680 | 6563 ft | 256 kts | 134° |
| 2026-04-26 00:35 | 40.62864 | -74.62993 | 6350 ft | 253 kts | 134° |
| 2026-04-26 00:36 | 40.61818 | -74.61318 | 6135 ft | 251 kts | 134° |
| 2026-04-26 00:36 | 40.60794 | -74.59680 | 5921 ft | 250 kts | 134° |
| 2026-04-26 00:36 | 40.59759 | -74.58026 | 5704 ft | 249 kts | 133° |
| 2026-04-26 00:36 | 40.58734 | -74.56389 | 5475 ft | 247 kts | 133° |
| 2026-04-26 00:37 | 40.57716 | -74.54761 | 5249 ft | 245 kts | 132° |
| 2026-04-26 00:37 | 40.56679 | -74.53107 | 5031 ft | 243 kts | 131° |
| 2026-04-26 00:37 | 40.55679 | -74.51511 | 4815 ft | 240 kts | 131° |
| 2026-04-26 00:37 | 40.54686 | -74.49927 | 4607 ft | 239 kts | 131° |
| 2026-04-26 00:38 | 40.53698 | -74.48354 | 4390 ft | 238 kts | 130° |
| 2026-04-26 00:38 | 40.52715 | -74.46788 | 4167 ft | 236 kts | 130° |
| 2026-04-26 00:38 | 40.51735 | -74.45228 | 3953 ft | 234 kts | 129° |
| 2026-04-26 00:38 | 40.50932 | -74.43949 | 3768 ft | 232 kts | 129° |
| 2026-04-26 00:39 | 40.49879 | -74.42268 | 3527 ft | 229 kts | 127° |
| 2026-04-26 00:39 | 40.49212 | -74.40569 | 3300 ft | 226 kts | 105° |
| 2026-04-26 00:39 | 40.49110 | -74.38728 | 3072 ft | 226 kts | 84° |
| 2026-04-26 00:39 | 40.49438 | -74.36852 | 2858 ft | 225 kts | 77° |
| 2026-04-26 00:40 | 40.49835 | -74.35053 | 2789 ft | 215 kts | 76° |
| 2026-04-26 00:40 | 40.50229 | -74.33360 | 2785 ft | 204 kts | 76° |
| 2026-04-26 00:40 | 40.50608 | -74.31744 | 2783 ft | 192 kts | 76° |
| 2026-04-26 00:40 | 40.50964 | -74.30232 | 2782 ft | 178 kts | 76° |
| 2026-04-26 00:41 | 40.51297 | -74.28835 | 2780 ft | 165 kts | 73° |
| 2026-04-26 00:41 | 40.51842 | -74.27658 | 2772 ft | 158 kts | 51° |
| 2026-04-26 00:41 | 40.52661 | -74.26895 | 2783 ft | 154 kts | 34° |
| 2026-04-26 00:41 | 40.53538 | -74.26354 | 2786 ft | 145 kts | 31° |
| 2026-04-26 00:42 | 40.54389 | -74.25841 | 2790 ft | 142 kts | 32° |
| 2026-04-26 00:42 | 40.55169 | -74.25358 | 2791 ft | 140 kts | 32° |
| 2026-04-26 00:42 | 40.55961 | -74.24861 | 2659 ft | 140 kts | 33° |
| 2026-04-26 00:42 | 40.56773 | -74.24353 | 2496 ft | 139 kts | 33° |
| 2026-04-26 00:43 | 40.57563 | -74.23856 | 2334 ft | 138 kts | 33° |
| 2026-04-26 00:43 | 40.58375 | -74.23344 | 2164 ft | 137 kts | 33° |
| 2026-04-26 00:43 | 40.59174 | -74.22842 | 1996 ft | 136 kts | 33° |
| 2026-04-26 00:43 | 40.59955 | -74.22349 | 1830 ft | 135 kts | 33° |
| 2026-04-26 00:44 | 40.60734 | -74.21858 | 1658 ft | 135 kts | 33° |
| 2026-04-26 00:44 | 40.61493 | -74.21378 | 1495 ft | 135 kts | 33° |
| 2026-04-26 00:44 | 40.62236 | -74.20908 | 1334 ft | 135 kts | 32° |
| 2026-04-26 00:44 | 40.62981 | -74.20438 | 1172 ft | 134 kts | 32° |
| 2026-04-26 00:45 | 40.63713 | -74.19976 | 1012 ft | 135 kts | 31° |
| 2026-04-26 00:45 | 40.64422 | -74.19528 | 859 ft | 135 kts | 31° |
| 2026-04-26 00:45 | 40.65176 | -74.19051 | 691 ft | 134 kts | 31° |
| 2026-04-26 00:45 | 40.65940 | -74.18567 | 516 ft | 134 kts | 31° |
| 2026-04-26 00:46 | 40.66690 | -74.18134 | 337 ft | 135 kts | 27° |
| 2026-04-26 00:46 | 40.67432 | -74.17660 | 181 ft | 133 kts | 30° |
| 2026-04-26 00:46 | 40.68173 | -74.17176 | 21 ft | 132 kts | 28° |
| 2026-04-26 00:46 | 40.68885 | -74.16705 | 19 ft | 133 kts | 27° |
| 2026-04-26 00:47 | 40.69645 | -74.16238 | 19 ft | 119 kts | 28° |
| 2026-04-26 00:47 | 40.70019 | -74.15990 | 19 ft | 29 kts | 25° |
| 2026-04-26 00:47 | 40.70142 | -74.15997 | 18 ft | 18 kts | 294° |
| 2026-04-26 00:47 | 40.70155 | -74.16144 | 18 ft | 18 kts | 274° |
| 2026-04-26 00:48 | 40.70162 | -74.16289 | 18 ft | 18 kts | 275° |
| 2026-04-26 00:48 | 40.70171 | -74.16434 | 18 ft | 18 kts | 275° |
| 2026-04-26 00:48 | 40.70180 | -74.16578 | 18 ft | 18 kts | 275° |
| 2026-04-26 00:48 | 40.70189 | -74.16720 | 18 ft | 17 kts | 275° |
| 2026-04-26 00:49 | 40.70199 | -74.16863 | 18 ft | 17 kts | 275° |
| 2026-04-26 00:49 | 40.70203 | -74.17006 | 18 ft | 17 kts | 259° |
| 2026-04-26 00:49 | 40.70174 | -74.17139 | 18 ft | 16 kts | 250° |
| 2026-04-26 00:49 | 40.70134 | -74.17268 | 18 ft | 16 kts | 244° |
| 2026-04-26 00:50 | 40.70071 | -74.17367 | 18 ft | 16 kts | 204° |
| 2026-04-26 00:50 | 40.69992 | -74.17442 | 18 ft | 16 kts | 232° |
| 2026-04-26 00:50 | 40.69971 | -74.17568 | 18 ft | 16 kts | 273° |
| 2026-04-26 00:50 | 40.69979 | -74.17684 | 18 ft | 13 kts | 275° |
| 2026-04-26 00:51 | 40.69987 | -74.17797 | 18 ft | 13 kts | 275° |
| 2026-04-26 00:51 | 40.69993 | -74.17893 | 18 ft | 8 kts | 275° |
| 2026-04-26 00:51 | 40.69989 | -74.17947 | 18 ft | 3 kts | 218° |
| 2026-04-26 00:51 | 40.69961 | -74.17952 | 18 ft | 5 kts | 179° |
| 2026-04-26 00:52 | 40.69931 | -74.17954 | 18 ft | 2 kts | 183° |
| 2026-04-26 00:52 | 40.69924 | -74.17954 | 18 ft | 0 kts | 183° |